createdAt,value
2024-03-20T00:02:21.058Z,28.00
2024-03-20T00:07:23.913Z,26.80
2024-03-20T00:12:28.128Z,27.30
2024-03-20T00:17:31.443Z,30.40
2024-03-20T00:22:36.397Z,25.80
2024-03-20T00:32:42.040Z,30.20
2024-03-20T00:37:44.740Z,27.00
2024-03-20T00:42:47.090Z,29.20
2024-03-20T00:47:49.618Z,27.70
2024-03-20T00:52:53.132Z,29.00
2024-03-20T00:57:56.715Z,27.50
2024-03-20T01:02:59.385Z,31.70
2024-03-20T01:08:02.058Z,24.70
2024-03-20T01:13:05.122Z,30.70
2024-03-20T01:18:08.355Z,30.30
2024-03-20T01:23:11.151Z,33.00
2024-03-20T01:28:13.666Z,30.50
2024-03-20T01:33:16.097Z,31.20
2024-03-20T01:38:18.949Z,28.40
2024-03-20T01:43:22.292Z,28.40
2024-03-20T01:48:24.676Z,30.20
2024-03-20T01:53:27.533Z,28.50
2024-03-20T01:58:30.233Z,28.60
2024-03-20T02:03:32.803Z,39.90
2024-03-20T02:08:35.677Z,86.50
2024-03-20T02:13:45.962Z,58.70
2024-03-20T02:18:50.582Z,46.60
2024-03-20T02:23:53.330Z,54.90
2024-03-20T02:28:55.775Z,39.80
2024-03-20T02:33:58.869Z,34.80
2024-03-20T02:39:01.221Z,29.00
2024-03-20T02:44:04.736Z,36.50
2024-03-20T02:49:07.126Z,33.00
2024-03-20T02:54:09.827Z,35.70
2024-03-20T02:59:12.689Z,35.50
2024-03-20T03:04:15.201Z,34.90
2024-03-20T03:09:20.649Z,32.90
2024-03-20T03:14:23.310Z,31.80
2024-03-20T03:19:25.809Z,38.80
2024-03-20T03:24:28.364Z,28.70
2024-03-20T03:29:30.942Z,35.80
2024-03-20T03:34:33.920Z,34.30
2024-03-20T03:39:36.559Z,37.90
2024-03-20T03:44:39.383Z,32.10
2024-03-20T03:49:42.329Z,35.90
2024-03-20T03:54:45.543Z,42.20
2024-03-20T03:59:48.209Z,30.80
2024-03-20T04:04:51.496Z,41.60
2024-03-20T04:09:55.349Z,32.20
2024-03-20T04:14:58.169Z,25.40
2024-03-20T04:20:00.582Z,33.30
2024-03-20T04:25:04.923Z,31.70
2024-03-20T04:30:09.082Z,36.00
2024-03-20T04:35:12.776Z,34.50
2024-03-20T04:40:16.131Z,31.20
2024-03-20T04:45:18.532Z,33.70
2024-03-20T04:50:21.846Z,33.80
2024-03-20T04:55:24.298Z,30.90
2024-03-20T05:00:26.794Z,27.70
2024-03-20T05:05:29.393Z,30.60
2024-03-20T05:10:31.890Z,30.30
2024-03-20T05:15:39.317Z,30.70
2024-03-20T05:20:41.722Z,30.50
2024-03-20T05:25:44.333Z,23.90
2024-03-20T05:30:46.983Z,28.50
2024-03-20T05:35:51.023Z,26.00
2024-03-20T05:40:53.549Z,30.20
2024-03-20T05:45:56.090Z,29.00
2024-03-20T05:50:58.811Z,26.90
2024-03-20T05:56:01.557Z,28.30
2024-03-20T06:01:04.354Z,30.20
2024-03-20T06:06:07.566Z,29.10
2024-03-20T06:11:10.197Z,30.30
2024-03-20T06:16:16.099Z,27.10
2024-03-20T06:21:18.959Z,28.80
2024-03-20T06:26:21.492Z,25.30
2024-03-20T06:31:26.865Z,30.00
2024-03-20T06:36:30.003Z,30.70
2024-03-20T06:41:35.063Z,29.70
2024-03-20T06:46:39.378Z,25.60
2024-03-20T06:51:43.886Z,27.40
2024-03-20T06:56:54.198Z,28.00
2024-03-20T07:01:59.270Z,27.30
2024-03-20T07:07:04.520Z,31.40
2024-03-20T07:12:07.468Z,29.80
2024-03-20T07:17:09.875Z,28.80
2024-03-20T07:22:16.170Z,28.10
2024-03-20T07:27:18.913Z,31.90
2024-03-20T07:32:22.079Z,28.60
2024-03-20T07:37:26.446Z,29.40
2024-03-20T07:42:29.045Z,25.10
2024-03-20T07:47:31.524Z,24.90
2024-03-20T07:52:34.020Z,25.30
2024-03-20T07:57:36.457Z,26.90
2024-03-20T08:02:39.120Z,26.20
2024-03-20T08:07:45.400Z,24.50
2024-03-20T08:12:48.598Z,22.40
2024-03-20T08:17:51.632Z,23.10
2024-03-20T08:22:54.216Z,23.60
2024-03-20T08:27:58.535Z,19.00
2024-03-20T08:33:00.995Z,24.80
2024-03-20T08:38:03.450Z,26.60
2024-03-20T08:43:17.740Z,27.90
2024-03-20T08:48:23.110Z,22.10
2024-03-20T08:53:25.512Z,23.60
2024-03-20T08:58:28.760Z,23.10
2024-03-20T09:03:31.769Z,23.50
2024-03-20T09:08:34.360Z,23.90
2024-03-20T09:13:43.931Z,26.00
2024-03-20T09:23:49.164Z,27.70
2024-03-20T09:28:52.397Z,26.10
2024-03-20T09:33:54.775Z,23.30
2024-03-20T09:38:57.659Z,21.10
2024-03-20T09:44:01.504Z,25.40
2024-03-20T09:49:04.765Z,16.50
2024-03-20T09:54:09.128Z,20.70
2024-03-20T09:59:11.611Z,21.20
2024-03-20T10:04:15.614Z,18.60
2024-03-20T10:09:17.844Z,20.40
2024-03-20T10:14:22.672Z,19.70
2024-03-20T10:19:26.844Z,25.80
2024-03-20T10:24:29.980Z,19.30
2024-03-20T10:29:36.855Z,21.00
2024-03-20T10:34:42.980Z,16.50
2024-03-20T10:39:48.441Z,15.00
2024-03-20T10:44:56.527Z,19.20
2024-03-20T10:49:58.859Z,18.20
2024-03-20T10:55:01.915Z,18.70
2024-03-20T11:00:12.027Z,17.90
2024-03-20T11:05:41.179Z,20.00
2024-03-20T11:10:49.639Z,16.50
2024-03-20T11:15:53.132Z,19.80
2024-03-20T11:26:04.315Z,16.90
2024-03-20T11:31:10.453Z,14.10
2024-03-20T11:36:19.578Z,16.10
2024-03-20T11:41:22.714Z,21.50
2024-03-20T11:46:25.748Z,21.30
2024-03-20T11:51:28.847Z,19.00
2024-03-20T11:56:35.485Z,17.50
2024-03-20T12:01:38.108Z,19.50
2024-03-20T12:06:41.618Z,10.70
2024-03-20T12:16:57.210Z,19.70
2024-03-20T12:21:59.735Z,21.00
2024-03-20T12:27:22.904Z,12.00
2024-03-20T12:32:25.878Z,11.70
2024-03-20T12:37:30.596Z,15.90
2024-03-20T12:42:33.912Z,16.60
2024-03-20T12:47:36.616Z,20.70
2024-03-20T12:52:42.404Z,14.00
2024-03-20T12:57:45.281Z,16.70
2024-03-20T13:02:48.628Z,19.40
2024-03-20T13:07:51.027Z,14.80
2024-03-20T13:13:03.040Z,16.80
2024-03-20T13:18:06.467Z,16.80
2024-03-20T13:23:13.724Z,17.00
2024-03-20T13:28:18.788Z,13.20
2024-03-20T13:33:21.953Z,15.40
2024-03-20T13:38:24.873Z,16.30
2024-03-20T13:43:40.698Z,17.20
2024-03-20T13:48:44.822Z,13.50
2024-03-20T13:53:50.774Z,13.40
2024-03-20T13:58:53.843Z,15.30
2024-03-20T14:04:00.053Z,10.60
2024-03-20T14:09:05.036Z,12.40
2024-03-20T14:14:08.253Z,16.80
2024-03-20T14:19:10.602Z,14.40
2024-03-20T14:24:16.254Z,16.30
2024-03-20T14:29:20.179Z,12.80
2024-03-20T14:34:24.570Z,21.30
2024-03-20T14:39:29.410Z,12.20
2024-03-20T14:44:37.463Z,16.10
2024-03-20T14:49:42.215Z,18.80
2024-03-20T15:00:14.135Z,12.70
2024-03-20T15:05:17.878Z,13.50
2024-03-20T15:10:20.515Z,11.00
2024-03-20T15:15:23.598Z,13.20
2024-03-20T15:20:26.283Z,12.20
2024-03-20T15:25:28.762Z,12.30
2024-03-20T15:30:38.349Z,8.00
2024-03-20T15:35:44.098Z,13.50
2024-03-20T15:40:47.510Z,12.00
2024-03-20T15:45:50.225Z,12.00
2024-03-20T15:50:52.692Z,14.70
2024-03-20T15:55:56.915Z,9.20
2024-03-20T16:01:00.369Z,15.30
2024-03-20T16:06:09.566Z,12.60
2024-03-20T16:11:13.240Z,13.60
2024-03-20T16:16:20.840Z,13.80
2024-03-20T16:21:25.739Z,16.80
2024-03-20T16:26:28.958Z,19.60
2024-03-20T16:31:35.603Z,17.10
2024-03-20T16:36:43.139Z,15.20
2024-03-20T16:42:02.245Z,16.10
2024-03-20T16:47:05.517Z,20.80
2024-03-20T16:52:08.002Z,16.80
2024-03-20T16:57:13.055Z,21.90
2024-03-20T17:02:16.463Z,16.10
2024-03-20T17:07:20.492Z,17.10
2024-03-20T17:12:22.865Z,17.00
2024-03-20T17:17:25.144Z,16.60
2024-03-20T17:22:28.169Z,16.00
2024-03-20T17:27:30.866Z,16.90
2024-03-20T17:32:33.279Z,16.20
2024-03-20T17:37:37.207Z,18.60
2024-03-20T17:42:43.025Z,15.70
2024-03-20T17:52:48.326Z,22.70
2024-03-20T17:57:51.194Z,17.00
2024-03-20T18:02:54.382Z,14.50
2024-03-20T18:07:57.199Z,15.60
2024-03-20T18:12:59.595Z,14.20
2024-03-20T18:18:04.774Z,17.20
2024-03-20T18:23:13.631Z,15.60
2024-03-20T18:28:17.411Z,14.50
2024-03-20T18:33:23.778Z,16.00
2024-03-20T18:38:26.595Z,15.80
2024-03-20T18:43:31.845Z,16.90
2024-03-20T18:48:34.771Z,16.80
2024-03-20T18:53:37.532Z,16.00
2024-03-20T18:58:41.135Z,18.80
2024-03-20T19:03:43.701Z,14.00
2024-03-20T19:08:47.059Z,17.10
2024-03-20T19:13:50.227Z,13.60
2024-03-20T19:18:52.498Z,14.50
2024-03-20T19:23:56.092Z,14.40
2024-03-20T19:29:03.429Z,21.70
2024-03-20T19:34:08.564Z,15.60
2024-03-20T19:39:14.402Z,14.90
2024-03-20T19:44:16.680Z,16.00
2024-03-20T19:49:20.212Z,14.30
2024-03-20T19:54:22.540Z,15.50
2024-03-20T19:59:24.900Z,12.40
2024-03-20T20:04:27.963Z,16.10
2024-03-20T20:09:38.553Z,16.60
2024-03-20T20:14:46.854Z,15.60
2024-03-20T20:19:52.012Z,17.60
2024-03-20T20:24:54.546Z,26.70
2024-03-20T20:30:00.714Z,24.60
2024-03-20T20:35:03.457Z,31.40
2024-03-20T20:40:14.020Z,36.60
2024-03-20T20:45:16.680Z,27.40
2024-03-20T20:50:20.420Z,33.90
2024-03-20T20:55:30.060Z,34.00
2024-03-20T21:00:33.474Z,54.80
2024-03-20T21:05:54.637Z,29.60
2024-03-20T21:11:15.663Z,40.90
2024-03-20T21:16:36.914Z,38.70
2024-03-20T21:21:40.164Z,32.30
2024-03-20T21:26:45.862Z,27.40
2024-03-20T21:31:48.465Z,27.10
2024-03-20T21:36:51.789Z,35.40
2024-03-20T21:41:54.591Z,28.50
2024-03-20T21:46:59.323Z,62.50
2024-03-20T21:52:02.162Z,73.80
2024-03-20T21:57:05.942Z,65.80
2024-03-20T22:02:19.055Z,70.50
2024-03-20T22:07:21.413Z,73.30
2024-03-20T22:12:24.826Z,71.20
2024-03-20T22:17:27.430Z,102.50
2024-03-20T22:22:30.401Z,69.30
2024-03-20T22:27:34.310Z,69.40
2024-03-20T22:32:37.184Z,90.60
2024-03-20T22:37:41.456Z,87.20
2024-03-20T22:42:48.586Z,59.00
2024-03-20T22:47:54.912Z,58.20
2024-03-20T22:52:57.278Z,63.60
2024-03-20T22:57:59.705Z,42.00
2024-03-20T23:03:02.348Z,49.60
2024-03-20T23:08:06.273Z,48.10
2024-03-20T23:13:11.088Z,32.10
2024-03-20T23:18:13.697Z,44.80
2024-03-20T23:23:16.414Z,42.00
2024-03-20T23:28:24.167Z,61.90
2024-03-20T23:33:27.643Z,50.40
2024-03-20T23:38:30.525Z,62.50
2024-03-20T23:43:34.271Z,66.90
2024-03-20T23:48:59.372Z,31.00
2024-03-20T23:54:02.140Z,34.30
2024-03-20T23:59:05.483Z,47.30
